createdAt,value
2022-08-14T00:01:13.423Z,67.50
2022-08-14T00:06:28.735Z,67.40
2022-08-14T00:11:32.172Z,67.20
2022-08-14T00:16:41.646Z,66.90
2022-08-14T00:21:50.862Z,67.10
2022-08-14T00:26:54.812Z,66.80
2022-08-14T00:31:57.182Z,66.90
2022-08-14T00:36:59.563Z,66.60
2022-08-14T00:42:05.443Z,66.60
2022-08-14T00:47:10.585Z,66.50
2022-08-14T00:52:18.237Z,66.80
2022-08-14T00:57:22.744Z,66.70
2022-08-14T01:02:27.748Z,66.80
2022-08-14T01:07:38.693Z,67.00
2022-08-14T01:12:49.728Z,66.70
2022-08-14T01:18:14.045Z,66.70
2022-08-14T01:23:19.130Z,66.60
2022-08-14T01:28:46.470Z,66.50
2022-08-14T01:35:15.863Z,66.70
2022-08-14T01:39:16.104Z,66.70
2022-08-14T01:44:32.438Z,66.70
2022-08-14T01:49:45.757Z,66.50
2022-08-14T01:54:58.054Z,66.50
2022-08-14T02:00:00.780Z,66.20
2022-08-14T02:05:11.784Z,66.40
2022-08-14T02:10:15.600Z,66.20
2022-08-14T02:15:21.847Z,66.10
2022-08-14T02:20:24.150Z,66.10
2022-08-14T02:25:29.971Z,66.10
2022-08-14T02:30:34.827Z,66.10
2022-08-14T02:35:43.591Z,66.10
2022-08-14T02:40:49.030Z,66.30
2022-08-14T02:45:52.002Z,66.20
2022-08-14T02:50:54.357Z,66.20
2022-08-14T02:56:02.680Z,66.30
2022-08-14T03:01:09.063Z,66.10
2022-08-14T03:06:13.626Z,66.20
2022-08-14T03:11:23.179Z,66.10
2022-08-14T03:16:27.234Z,66.20
2022-08-14T03:21:31.526Z,65.80
2022-08-14T03:26:37.304Z,66.10
2022-08-14T03:31:43.647Z,66.00
2022-08-14T03:37:50.715Z,66.70
2022-08-14T03:42:19.405Z,67.20
2022-08-14T03:47:21.982Z,67.30
2022-08-14T03:52:55.489Z,67.50
2022-08-14T03:58:00.523Z,67.60
2022-08-14T04:03:06.532Z,67.20
2022-08-14T04:08:22.913Z,67.00
2022-08-14T04:13:35.473Z,67.20
2022-08-14T04:18:43.644Z,67.50
2022-08-14T04:23:48.991Z,67.20
2022-08-14T04:29:13.828Z,67.60
2022-08-14T04:34:23.953Z,67.50
2022-08-14T04:39:56.574Z,67.70
2022-08-14T04:45:00.959Z,67.50
2022-08-14T04:50:05.772Z,67.50
2022-08-14T04:55:08.548Z,67.70
2022-08-14T05:00:16.121Z,67.70
2022-08-14T05:05:21.117Z,67.30
2022-08-14T05:10:26.155Z,67.10
2022-08-14T05:15:36.583Z,66.90
2022-08-14T05:21:54.860Z,67.50
2022-08-14T05:26:13.355Z,67.50
2022-08-14T05:31:20.411Z,67.50
2022-08-14T05:36:23.920Z,67.60
2022-08-14T05:41:31.992Z,67.70
2022-08-14T05:46:49.998Z,67.80
2022-08-14T05:51:52.274Z,68.10
2022-08-14T05:56:55.185Z,67.70
2022-08-14T06:01:57.599Z,68.00
2022-08-14T06:07:00.606Z,67.40
2022-08-14T06:12:04.498Z,67.40
2022-08-14T06:17:07.771Z,67.90
2022-08-14T06:22:10.020Z,68.20
2022-08-14T06:27:15.108Z,67.90
2022-08-14T06:32:36.940Z,68.00
2022-08-14T06:37:44.019Z,66.60
2022-08-14T06:42:49.429Z,66.00
2022-08-14T06:47:52.182Z,67.40
2022-08-14T06:52:55.929Z,66.20
2022-08-14T06:57:58.378Z,64.70
2022-08-14T07:03:21.772Z,66.20
2022-08-14T07:08:26.597Z,70.40
2022-08-14T07:13:32.321Z,69.90
2022-08-14T07:18:36.255Z,68.10
2022-08-14T07:23:39.968Z,62.70
2022-08-14T07:28:43.553Z,61.90
2022-08-14T07:33:50.532Z,61.50
2022-08-14T07:38:53.382Z,58.40
2022-08-14T07:43:57.705Z,57.70
2022-08-14T07:49:00.763Z,56.70
2022-08-14T07:54:04.262Z,56.70
2022-08-14T07:59:12.823Z,56.80
2022-08-14T08:04:16.684Z,57.20
2022-08-14T08:09:32.447Z,58.00
2022-08-14T08:14:55.668Z,58.60
2022-08-14T08:19:57.482Z,57.80
2022-08-14T08:25:00.712Z,59.00
2022-08-14T08:30:09.953Z,59.00
2022-08-14T08:35:20.468Z,58.70
2022-08-14T08:40:31.055Z,59.90
2022-08-14T08:45:36.360Z,60.40
2022-08-14T08:55:43.167Z,60.80
2022-08-14T09:00:50.042Z,62.20
2022-08-14T09:05:58.524Z,62.60
2022-08-14T09:11:20.014Z,63.60
2022-08-14T09:16:26.535Z,63.90
2022-08-14T09:21:31.708Z,65.10
2022-08-14T09:26:34.820Z,64.30
2022-08-14T09:31:42.548Z,65.00
2022-08-14T09:36:52.014Z,65.20
2022-08-14T09:42:21.104Z,66.10
2022-08-14T09:47:47.088Z,66.30
2022-08-14T09:52:55.132Z,66.40
2022-08-14T09:58:22.557Z,66.90
2022-08-14T10:03:33.340Z,67.00
2022-08-14T10:08:51.159Z,67.10
2022-08-14T10:13:57.802Z,67.70
2022-08-14T10:19:07.516Z,69.10
2022-08-14T10:24:23.320Z,69.20
2022-08-14T10:29:35.480Z,68.80
2022-08-14T10:34:40.883Z,68.60
2022-08-14T10:40:01.256Z,69.00
2022-08-14T10:45:35.573Z,69.10
2022-08-14T10:50:51.546Z,69.10
2022-08-14T10:55:59.624Z,69.10
2022-08-14T11:01:08.041Z,68.40
2022-08-14T11:06:16.343Z,68.90
2022-08-14T11:11:19.963Z,68.00
2022-08-14T11:16:23.058Z,67.40
2022-08-14T11:21:30.662Z,67.80
2022-08-14T11:26:38.774Z,68.30
2022-08-14T11:31:41.681Z,68.00
2022-08-14T11:37:02.278Z,68.70
2022-08-14T11:42:57.912Z,68.80
2022-08-14T11:47:35.129Z,68.40
2022-08-14T11:52:50.715Z,68.60
2022-08-14T11:58:09.502Z,68.10
2022-08-14T12:03:14.789Z,69.10
2022-08-14T12:08:24.684Z,68.70
2022-08-14T12:13:34.701Z,69.30
2022-08-14T12:18:40.681Z,68.50
2022-08-14T12:23:50.574Z,69.00
2022-08-14T12:29:08.036Z,69.80
2022-08-14T12:34:13.383Z,70.60
2022-08-14T12:39:24.071Z,70.90
2022-08-14T12:44:34.552Z,70.90
2022-08-14T12:49:37.242Z,70.40
2022-08-14T12:54:45.297Z,70.00
2022-08-14T13:00:22.453Z,70.10
2022-08-14T13:05:32.310Z,70.00
2022-08-14T13:10:46.941Z,71.10
2022-08-14T13:15:57.173Z,70.30
2022-08-14T13:21:02.275Z,70.40
2022-08-14T13:26:05.012Z,70.30
2022-08-14T13:31:11.814Z,70.10
2022-08-14T13:36:23.685Z,69.40
2022-08-14T13:41:36.146Z,69.50
2022-08-14T13:46:38.824Z,69.60
2022-08-14T13:51:47.357Z,68.50
2022-08-14T13:56:51.751Z,68.30
2022-08-14T14:01:56.133Z,68.20
2022-08-14T14:07:03.426Z,69.40
2022-08-14T14:12:37.317Z,68.60
2022-08-14T14:17:31.636Z,69.70
2022-08-14T14:23:01.029Z,69.50
2022-08-14T14:27:59.523Z,69.70
2022-08-14T14:33:08.680Z,68.80
2022-08-14T14:38:31.005Z,68.40
2022-08-14T14:43:38.987Z,69.30
2022-08-14T14:48:46.613Z,69.30
2022-08-14T14:53:58.399Z,69.10
2022-08-14T14:59:01.115Z,68.80
2022-08-14T15:04:08.015Z,68.60
2022-08-14T15:09:23.692Z,68.20
2022-08-14T15:14:54.699Z,68.10
2022-08-14T15:19:56.985Z,68.20
2022-08-14T15:24:59.716Z,67.60
2022-08-14T15:30:06.609Z,67.50
2022-08-14T15:35:12.121Z,67.30
2022-08-14T15:40:16.411Z,66.90
2022-08-14T15:45:24.839Z,67.10
2022-08-14T15:50:29.246Z,67.10
2022-08-14T15:55:31.588Z,67.10
2022-08-14T16:00:56.687Z,67.10
2022-08-14T16:05:59.621Z,66.10
2022-08-14T16:11:07.019Z,65.90
2022-08-14T16:16:34.736Z,65.10
2022-08-14T16:21:40.949Z,65.00
2022-08-14T16:27:05.273Z,64.90
2022-08-14T16:32:32.121Z,64.60
2022-08-14T16:37:34.266Z,64.60
2022-08-14T16:43:04.733Z,64.30
2022-08-14T16:48:03.696Z,64.50
2022-08-14T16:53:26.286Z,64.50
2022-08-14T16:58:30.540Z,64.50
2022-08-14T17:03:40.890Z,63.90
2022-08-14T17:08:46.641Z,64.10
2022-08-14T17:14:00.780Z,64.20
2022-08-14T17:19:05.628Z,63.80
2022-08-14T17:24:57.041Z,64.30
2022-08-14T17:29:44.551Z,64.30
2022-08-14T17:34:57.671Z,64.20
2022-08-14T17:40:19.386Z,64.30
2022-08-14T17:45:27.026Z,64.60
2022-08-14T17:50:59.990Z,65.20
2022-08-14T17:56:04.786Z,64.80
2022-08-14T18:01:07.767Z,64.60
2022-08-14T18:06:39.059Z,64.70
2022-08-14T18:11:45.625Z,64.80
2022-08-14T18:16:50.716Z,64.90
2022-08-14T18:21:57.433Z,64.70
2022-08-14T18:27:02.835Z,65.10
2022-08-14T18:32:31.366Z,65.30
2022-08-14T18:37:34.355Z,65.20
2022-08-14T18:42:36.596Z,65.00
2022-08-14T18:48:05.180Z,65.10
2022-08-14T18:58:58.864Z,65.60
2022-08-14T19:04:02.314Z,65.60
2022-08-14T19:09:07.467Z,65.90
2022-08-14T19:14:14.952Z,65.80
2022-08-14T19:19:18.915Z,65.80
2022-08-14T19:24:30.108Z,65.80
2022-08-14T19:29:37.552Z,65.90
2022-08-14T19:34:52.320Z,65.80
2022-08-14T19:45:46.299Z,65.80
2022-08-14T19:50:48.888Z,65.90
2022-08-14T19:56:02.295Z,66.00
2022-08-14T20:01:08.637Z,66.00
2022-08-14T20:06:12.284Z,66.00
2022-08-14T20:12:00.858Z,66.00
2022-08-14T20:17:05.270Z,66.00
2022-08-14T20:22:36.726Z,66.30
2022-08-14T20:32:55.185Z,66.60
2022-08-14T20:38:29.680Z,66.50
2022-08-14T20:48:50.938Z,66.60
2022-08-14T20:53:58.301Z,66.20
2022-08-14T21:10:04.828Z,66.80
2022-08-14T21:15:20.359Z,66.50
2022-08-14T21:20:26.148Z,66.70
2022-08-14T21:25:32.201Z,67.00
2022-08-14T21:30:51.551Z,66.80
2022-08-14T21:35:57.507Z,67.10
2022-08-14T21:41:41.703Z,67.20
2022-08-14T21:46:29.698Z,67.30
2022-08-14T21:51:55.467Z,67.50
2022-08-14T21:56:56.777Z,67.10
2022-08-14T22:02:03.676Z,67.30
2022-08-14T22:07:12.217Z,67.30
2022-08-14T22:12:57.644Z,67.30
2022-08-14T22:17:38.428Z,67.50
2022-08-14T22:22:46.846Z,67.60
2022-08-14T22:27:55.437Z,67.60
2022-08-14T22:33:00.231Z,67.80
2022-08-14T22:38:35.014Z,68.00
2022-08-14T22:43:25.291Z,67.80
2022-08-14T22:48:27.595Z,68.10
2022-08-14T22:53:32.199Z,68.30
2022-08-14T22:58:35.080Z,68.50
2022-08-14T23:03:42.224Z,68.70
2022-08-14T23:09:01.954Z,69.20
2022-08-14T23:14:07.287Z,69.20
2022-08-14T23:19:15.323Z,69.60
2022-08-14T23:24:27.028Z,70.00
2022-08-14T23:29:31.431Z,69.60
2022-08-14T23:34:39.470Z,69.60
2022-08-14T23:39:50.405Z,70.00
2022-08-14T23:44:55.708Z,70.10
2022-08-14T23:50:03.365Z,70.00
2022-08-14T23:55:11.191Z,69.80
